createdAt,value
2023-04-16T00:01:02.783Z,98089.50
2023-04-16T00:03:29.658Z,98092.16
2023-04-16T00:05:56.781Z,98093.97
2023-04-16T00:08:24.732Z,98084.84
2023-04-16T00:10:52.989Z,98095.75
2023-04-16T00:13:19.851Z,98081.47
2023-04-16T00:15:46.402Z,98105.34
2023-04-16T00:18:15.680Z,98100.31
2023-04-16T00:20:42.400Z,98099.38
2023-04-16T00:23:08.974Z,98109.09
2023-04-16T00:25:35.473Z,98101.28
2023-04-16T00:28:02.047Z,98099.47
2023-04-16T00:30:28.629Z,98103.09
2023-04-16T00:32:55.288Z,98101.41
2023-04-16T00:35:22.008Z,98106.69
2023-04-16T00:37:48.724Z,98109.34
2023-04-16T00:40:15.284Z,98106.69
2023-04-16T00:42:41.810Z,98114.63
2023-04-16T00:45:09.589Z,98107.66
2023-04-16T00:47:36.203Z,98117.38
2023-04-16T00:50:04.421Z,98121.00
2023-04-16T00:52:34.668Z,98128.91
2023-04-16T00:55:01.305Z,98128.91
2023-04-16T00:57:27.938Z,98135.97
2023-04-16T00:59:54.832Z,98142.13
2023-04-16T01:02:21.589Z,98139.72
2023-04-16T01:04:51.595Z,98145.84
2023-04-16T01:07:18.191Z,98156.41
2023-04-16T01:09:44.721Z,98155.56
2023-04-16T01:12:11.442Z,98155.56
2023-04-16T01:14:38.098Z,98148.59
2023-04-16T01:17:05.102Z,98164.44
2023-04-16T01:19:31.655Z,98167.94
2023-04-16T01:21:59.305Z,98167.22
2023-04-16T01:24:25.843Z,98165.41
2023-04-16T01:26:55.438Z,98170.81
2023-04-16T01:29:21.975Z,98169.03
2023-04-16T01:31:50.810Z,98162.88
2023-04-16T01:34:31.021Z,98160.50
2023-04-16T01:36:58.257Z,98162.06
2023-04-16T01:39:24.803Z,98163.84
2023-04-16T01:41:51.405Z,98153.28
2023-04-16T01:44:17.929Z,98162.16
2023-04-16T01:46:45.053Z,98167.56
2023-04-16T01:49:11.930Z,98171.06
2023-04-16T01:51:38.640Z,98165.88
2023-04-16T01:54:09.120Z,98171.16
2023-04-16T01:56:35.826Z,98171.28
2023-04-16T01:59:02.481Z,98173.94
2023-04-16T02:01:35.577Z,98163.34
2023-04-16T02:04:02.837Z,98161.66
2023-04-16T02:06:29.576Z,98173.19
2023-04-16T02:08:56.213Z,98163.47
2023-04-16T02:11:22.745Z,98168.91
2023-04-16T02:13:50.485Z,98166.25
2023-04-16T02:16:18.458Z,98163.59
2023-04-16T02:19:04.555Z,98162.88
2023-04-16T02:21:34.477Z,98173.31
2023-04-16T02:24:01.272Z,98167.22
2023-04-16T02:26:30.257Z,98173.44
2023-04-16T02:29:02.228Z,98170.81
2023-04-16T02:31:37.560Z,98164.69
2023-04-16T02:34:05.355Z,98172.63
2023-04-16T02:36:32.118Z,98169.13
2023-04-16T02:38:59.545Z,98175.25
2023-04-16T02:41:26.491Z,98180.53
2023-04-16T02:43:53.123Z,98191.19
2023-04-16T02:46:19.755Z,98182.31
2023-04-16T02:48:46.514Z,98191.19
2023-04-16T02:51:13.194Z,98185.91
2023-04-16T02:53:39.917Z,98184.59
2023-04-16T02:56:07.049Z,98187.84
2023-04-16T02:58:33.904Z,98195.78
2023-04-16T03:01:00.531Z,98201.06
2023-04-16T03:03:27.402Z,98202.97
2023-04-16T03:05:53.975Z,98209.06
2023-04-16T03:08:20.744Z,98205.59
2023-04-16T03:10:47.432Z,98208.47
2023-04-16T03:13:14.742Z,98217.97
2023-04-16T03:15:41.241Z,98220.63
2023-04-16T03:18:08.040Z,98218.94
2023-04-16T03:20:34.562Z,98213.13
2023-04-16T03:23:01.207Z,98215.44
2023-04-16T03:25:27.931Z,98220.72
2023-04-16T03:27:54.491Z,98233.91
2023-04-16T03:30:21.098Z,98237.50
2023-04-16T03:32:47.765Z,98237.50
2023-04-16T03:35:14.801Z,98240.28
2023-04-16T03:37:41.910Z,98250.72
2023-04-16T03:40:08.943Z,98250.84
2023-04-16T03:42:35.516Z,98250.09
2023-04-16T03:45:02.625Z,98246.75
2023-04-16T03:47:29.793Z,98254.56
2023-04-16T03:50:00.219Z,98261.53
2023-04-16T03:52:28.153Z,98247.59
2023-04-16T03:54:55.147Z,98263.31
2023-04-16T03:57:27.383Z,98263.44
2023-04-16T03:59:58.285Z,98261.88
2023-04-16T04:02:27.696Z,98266.19
2023-04-16T04:04:54.885Z,98271.34
2023-04-16T04:07:21.508Z,98270.66
2023-04-16T04:09:48.273Z,98281.22
2023-04-16T04:12:15.341Z,98285.50
2023-04-16T04:14:43.706Z,98294.41
2023-04-16T04:17:10.494Z,98296.19
2023-04-16T04:19:38.884Z,98302.44
2023-04-16T04:25:17.938Z,98297.25
2023-04-16T04:27:44.526Z,98308.56
2023-04-16T04:30:11.709Z,98312.16
2023-04-16T04:32:39.302Z,98317.31
2023-04-16T04:35:06.561Z,98320.91
2023-04-16T04:37:33.366Z,98316.50
2023-04-16T04:40:05.651Z,98319.97
2023-04-16T04:42:34.535Z,98323.66
2023-04-16T04:45:01.277Z,98319.97
2023-04-16T04:47:30.855Z,98329.69
2023-04-16T04:49:57.587Z,98326.94
2023-04-16T04:52:24.940Z,98312.63
2023-04-16T04:54:52.493Z,98327.06
2023-04-16T04:57:19.630Z,98331.47
2023-04-16T04:59:46.404Z,98333.03
2023-04-16T05:02:14.362Z,98327.75
2023-04-16T05:04:40.955Z,98338.31
2023-04-16T05:07:07.562Z,98335.81
2023-04-16T05:09:34.131Z,98342.66
2023-04-16T05:12:00.805Z,98341.94
2023-04-16T05:14:27.303Z,98352.25
2023-04-16T05:16:54.129Z,98354.06
2023-04-16T05:19:21.140Z,98358.38
2023-04-16T05:21:47.674Z,98342.28
2023-04-16T05:24:15.080Z,98352.38
2023-04-16T05:26:41.801Z,98358.28
2023-04-16T05:29:08.499Z,98362.69
2023-04-16T05:31:35.444Z,98358.28
2023-04-16T05:34:01.996Z,98361.75
2023-04-16T05:36:28.520Z,98363.44
2023-04-16T05:38:55.081Z,98371.50
2023-04-16T05:41:21.629Z,98378.34
2023-04-16T05:43:48.237Z,98380.03
2023-04-16T05:46:14.889Z,98387.00
2023-04-16T05:48:41.410Z,98386.25
2023-04-16T05:51:08.081Z,98393.94
2023-04-16T05:53:34.628Z,98396.50
2023-04-16T05:56:01.241Z,98393.00
2023-04-16T05:58:27.722Z,98394.81
2023-04-16T06:00:54.546Z,98394.56
2023-04-16T06:03:21.253Z,98392.78
2023-04-16T06:05:47.942Z,98389.19
2023-04-16T06:08:14.517Z,98384.75
2023-04-16T06:10:41.136Z,98383.91
2023-04-16T06:13:07.633Z,98385.47
2023-04-16T06:15:34.251Z,98396.75
2023-04-16T06:18:01.087Z,98397.63
2023-04-16T06:20:27.937Z,98401.09
2023-04-16T06:22:55.888Z,98401.94
2023-04-16T06:25:22.495Z,98409.75
2023-04-16T06:27:49.113Z,98411.44
2023-04-16T06:30:16.588Z,98413.97
2023-04-16T06:32:44.230Z,98410.38
2023-04-16T06:35:10.951Z,98410.25
2023-04-16T06:37:37.531Z,98407.59
2023-04-16T06:40:04.858Z,98412.78
2023-04-16T06:42:31.541Z,98410.13
2023-04-16T06:44:58.259Z,98412.69
2023-04-16T06:47:24.958Z,98409.91
2023-04-16T06:49:51.533Z,98413.38
2023-04-16T06:52:18.138Z,98410.63
2023-04-16T06:54:44.735Z,98423.00
2023-04-16T06:57:11.371Z,98419.53
2023-04-16T06:59:38.806Z,98427.22
2023-04-16T07:02:05.745Z,98435.13
2023-04-16T07:04:35.837Z,98436.00
2023-04-16T07:07:02.400Z,98439.47
2023-04-16T07:09:28.901Z,98443.81
2023-04-16T07:11:55.577Z,98445.50
2023-04-16T07:14:22.149Z,98439.22
2023-04-16T07:16:48.735Z,98441.78
2023-04-16T07:19:15.563Z,98449.59
2023-04-16T07:21:43.681Z,98447.78
2023-04-16T07:24:14.110Z,98448.66
2023-04-16T07:26:40.971Z,98461.72
2023-04-16T07:29:07.694Z,98453.94
2023-04-16T07:31:34.396Z,98436.97
2023-04-16T07:34:01.129Z,98460.66
2023-04-16T07:36:28.353Z,98465.94
2023-04-16T07:38:56.013Z,98460.53
2023-04-16T07:41:22.674Z,98448.75
2023-04-16T07:43:49.373Z,98463.09
2023-04-16T07:46:16.246Z,98462.03
2023-04-16T07:48:43.097Z,98463.72
2023-04-16T07:51:09.879Z,98465.41
2023-04-16T07:53:36.386Z,98467.00
2023-04-16T07:56:02.947Z,98465.19
2023-04-16T07:58:29.486Z,98466.75
2023-04-16T08:00:56.221Z,98471.84
2023-04-16T08:03:23.111Z,98461.97
2023-04-16T08:05:50.090Z,98466.31
2023-04-16T08:08:16.784Z,98473.28
2023-04-16T08:10:43.335Z,98473.28
2023-04-16T08:13:09.947Z,98473.16
2023-04-16T08:15:36.875Z,98482.16
2023-04-16T08:18:05.849Z,98475.22
2023-04-16T08:20:35.768Z,98480.06
2023-04-16T08:23:02.256Z,98483.38
2023-04-16T08:25:28.863Z,98488.13
2023-04-16T08:27:55.546Z,98490.16
2023-04-16T08:30:22.261Z,98485.94
2023-04-16T08:32:50.126Z,98481.84
2023-04-16T08:35:17.512Z,98488.19
2023-04-16T08:37:44.023Z,98485.75
2023-04-16T08:40:11.033Z,98481.66
2023-04-16T08:42:55.932Z,98484.53
2023-04-16T08:45:23.143Z,98492.78
2023-04-16T08:47:51.865Z,98464.69
2023-04-16T08:50:23.211Z,98488.75
2023-04-16T08:53:11.303Z,98489.72
2023-04-16T08:55:40.702Z,98488.03
2023-04-16T08:58:22.424Z,98493.41
2023-04-16T09:00:49.555Z,98491.72
2023-04-16T09:03:16.566Z,98492.69
2023-04-16T09:05:43.961Z,98478.25
2023-04-16T09:08:10.595Z,98503.66
2023-04-16T09:10:37.155Z,98499.13
2023-04-16T09:13:03.808Z,98501.41
2023-04-16T09:15:30.721Z,98494.88
2023-04-16T09:17:57.642Z,98481.03
2023-04-16T09:20:24.737Z,98495.78
2023-04-16T09:22:51.532Z,98499.78
2023-04-16T09:25:22.040Z,98496.69
2023-04-16T09:27:52.094Z,98492.03
2023-04-16T09:30:27.133Z,98487.81
2023-04-16T09:33:23.548Z,98492.09
2023-04-16T09:35:53.763Z,98493.56
2023-04-16T09:38:21.094Z,98496.84
2023-04-16T09:40:47.847Z,98493.00
2023-04-16T09:43:18.330Z,98493.66
2023-04-16T09:45:52.921Z,98490.78
2023-04-16T09:48:28.446Z,98494.88
2023-04-16T09:50:56.261Z,98502.56
2023-04-16T09:53:30.330Z,98491.16
2023-04-16T09:56:02.376Z,98501.28
2023-04-16T09:58:29.665Z,98501.16
2023-04-16T10:01:06.876Z,98502.66
2023-04-16T10:03:35.175Z,98503.28
2023-04-16T10:06:14.926Z,98497.13
2023-04-16T10:08:53.092Z,98504.59
2023-04-16T10:11:20.887Z,98500.03
2023-04-16T10:13:47.451Z,98503.44
2023-04-16T10:16:14.170Z,98505.81
2023-04-16T10:18:42.711Z,98497.16
2023-04-16T10:21:16.322Z,98509.81
2023-04-16T10:23:44.076Z,98504.28
2023-04-16T10:26:11.106Z,98508.50
2023-04-16T10:28:38.200Z,98498.38
2023-04-16T10:31:08.119Z,98505.50
2023-04-16T10:33:36.850Z,98515.75
2023-04-16T10:36:16.193Z,98509.50
2023-04-16T10:38:53.069Z,98515.41
2023-04-16T10:41:20.658Z,98514.44
2023-04-16T10:43:52.550Z,98519.50
2023-04-16T10:46:19.753Z,98507.84
2023-04-16T10:48:55.737Z,98513.88
2023-04-16T10:51:27.790Z,98510.16
2023-04-16T10:53:56.241Z,98510.84
2023-04-16T10:56:25.299Z,98513.31
2023-04-16T10:58:54.903Z,98518.47
2023-04-16T11:01:31.367Z,98514.75
2023-04-16T11:04:19.546Z,98521.63
2023-04-16T11:07:07.598Z,98521.53
2023-04-16T11:09:59.294Z,98516.94
2023-04-16T11:12:40.395Z,98518.50
2023-04-16T11:15:08.529Z,98513.94
2023-04-16T11:17:48.706Z,98524.41
2023-04-16T11:20:20.506Z,98517.06
2023-04-16T11:22:49.169Z,98521.28
2023-04-16T11:25:22.895Z,98518.53
2023-04-16T11:27:51.193Z,98525.41
2023-04-16T11:30:18.983Z,98516.50
2023-04-16T11:32:45.988Z,98526.84
2023-04-16T11:35:19.399Z,98524.78
2023-04-16T11:37:48.309Z,98524.91
2023-04-16T11:42:31.497Z,98521.94
2023-04-16T11:45:00.877Z,98522.50
2023-04-16T11:47:27.617Z,98522.75
2023-04-16T11:49:54.298Z,98530.22
2023-04-16T11:52:31.966Z,98522.28
2023-04-16T11:54:59.472Z,98528.41
2023-04-16T11:57:31.241Z,98531.78
2023-04-16T12:00:02.012Z,98529.00
2023-04-16T12:02:53.774Z,98528.78
2023-04-16T12:05:31.690Z,98524.22
2023-04-16T12:08:03.237Z,98524.09
2023-04-16T12:10:36.574Z,98527.44
2023-04-16T12:13:15.083Z,98519.41
2023-04-16T12:15:52.307Z,98521.09
2023-04-16T12:18:22.366Z,98523.47
2023-04-16T12:20:51.045Z,98521.69
2023-04-16T12:23:26.825Z,98517.97
2023-04-16T12:25:54.310Z,98515.19
2023-04-16T12:28:35.085Z,98512.41
2023-04-16T12:31:02.841Z,98510.47
2023-04-16T12:33:29.638Z,98495.78
2023-04-16T12:35:56.897Z,98505.19
2023-04-16T12:38:24.715Z,98499.53
2023-04-16T12:40:52.141Z,98499.41
2023-04-16T12:43:19.846Z,98480.53
2023-04-16T12:45:46.542Z,98493.00
2023-04-16T12:48:16.037Z,98492.06
2023-04-16T12:50:44.246Z,98490.22
2023-04-16T12:53:11.726Z,98495.44
2023-04-16T12:55:40.877Z,98491.78
2023-04-16T12:58:09.813Z,98491.78
2023-04-16T13:00:37.769Z,98488.19
2023-04-16T13:03:04.736Z,98484.84
2023-04-16T13:05:31.493Z,98494.22
2023-04-16T13:07:58.065Z,98493.38
2023-04-16T13:10:24.942Z,98488.91
2023-04-16T13:12:51.467Z,98486.13
2023-04-16T13:15:20.879Z,98489.63
2023-04-16T13:17:47.469Z,98493.13
2023-04-16T13:20:14.051Z,98488.09
2023-04-16T13:22:40.765Z,98474.34
2023-04-16T13:25:08.120Z,98491.31
2023-04-16T13:27:34.666Z,98482.38
2023-04-16T13:30:01.316Z,98485.75
2023-04-16T13:32:27.936Z,98488.41
2023-04-16T13:34:54.604Z,98492.75
2023-04-16T13:37:21.102Z,98480.97
2023-04-16T13:39:47.629Z,98491.06
2023-04-16T13:42:14.240Z,98489.25
2023-04-16T13:44:41.040Z,98487.59
2023-04-16T13:47:08.006Z,98487.69
2023-04-16T13:49:36.011Z,98494.69
2023-04-16T13:52:03.158Z,98484.44
2023-04-16T13:54:29.823Z,98494.81
2023-04-16T13:56:56.735Z,98491.19
2023-04-16T13:59:23.620Z,98485.16
2023-04-16T14:01:51.038Z,98481.00
2023-04-16T14:04:17.878Z,98484.59
2023-04-16T14:06:44.465Z,98494.84
2023-04-16T14:09:12.063Z,98486.75
2023-04-16T14:11:38.998Z,98501.47
2023-04-16T14:14:05.999Z,98490.34
2023-04-16T14:16:32.788Z,98482.66
2023-04-16T14:18:59.780Z,98487.63
2023-04-16T14:21:27.012Z,98480.84
2023-04-16T14:23:56.915Z,98480.88
2023-04-16T14:26:23.519Z,98483.25
2023-04-16T14:28:50.997Z,98470.28
2023-04-16T14:31:18.103Z,98477.28
2023-04-16T14:33:46.910Z,98480.53
2023-04-16T14:36:13.642Z,98481.13
2023-04-16T14:38:40.792Z,98478.22
2023-04-16T14:41:07.392Z,98478.81
2023-04-16T14:43:34.294Z,98481.31
2023-04-16T14:46:00.845Z,98479.13
2023-04-16T14:48:27.438Z,98479.03
2023-04-16T14:50:54.004Z,98484.81
2023-04-16T14:53:20.873Z,98489.75
2023-04-16T14:55:47.734Z,98487.69
2023-04-16T14:58:14.366Z,98483.34
2023-04-16T15:00:41.362Z,98499.72
2023-04-16T15:03:08.226Z,98496.09
2023-04-16T15:05:35.991Z,98488.16
2023-04-16T15:08:02.797Z,98495.97
2023-04-16T15:10:29.966Z,98499.44
2023-04-16T15:12:56.852Z,98484.75
2023-04-16T15:15:23.436Z,98501.13
2023-04-16T15:17:51.052Z,98490.53
2023-04-16T15:20:18.057Z,98490.53
2023-04-16T15:22:46.827Z,98490.53
2023-04-16T15:25:14.485Z,98491.38
2023-04-16T15:27:41.240Z,98491.50
2023-04-16T15:30:08.622Z,98496.78
2023-04-16T15:32:35.579Z,98493.44
2023-04-16T15:35:03.503Z,98484.53
2023-04-16T15:37:30.238Z,98482.47
2023-04-16T15:39:57.054Z,98495.97
2023-04-16T15:42:23.933Z,98486.22
2023-04-16T15:44:50.510Z,98499.56
2023-04-16T15:47:17.161Z,98495.25
2023-04-16T15:49:43.650Z,98500.44
2023-04-16T15:52:11.928Z,98493.69
2023-04-16T15:54:38.625Z,98503.69
2023-04-16T15:57:05.202Z,98505.16
2023-04-16T15:59:32.596Z,98504.19
2023-04-16T16:01:59.551Z,98515.63
2023-04-16T16:04:28.055Z,98503.59
2023-04-16T16:06:54.897Z,98498.97
2023-04-16T16:09:27.181Z,98506.09
2023-04-16T16:11:54.354Z,98509.03
2023-04-16T16:14:22.191Z,98506.53
2023-04-16T16:16:49.476Z,98513.28
2023-04-16T16:19:16.652Z,98515.31
2023-04-16T16:21:43.424Z,98519.16
2023-04-16T16:24:09.953Z,98519.50
2023-04-16T16:26:36.632Z,98524.19
2023-04-16T16:29:03.645Z,98521.00
2023-04-16T16:31:30.611Z,98525.91
2023-04-16T16:33:57.235Z,98525.75
2023-04-16T16:36:23.894Z,98518.13
2023-04-16T16:38:50.575Z,98533.25
2023-04-16T16:41:17.308Z,98521.31
2023-04-16T16:43:43.815Z,98516.69
2023-04-16T16:46:10.951Z,98526.53
2023-04-16T16:48:37.532Z,98539.31
2023-04-16T16:51:04.177Z,98537.91
2023-04-16T16:53:30.781Z,98536.38
2023-04-16T16:55:57.351Z,98548.91
2023-04-16T16:58:23.926Z,98540.03
2023-04-16T17:00:50.850Z,98550.31
2023-04-16T17:03:18.507Z,98530.09
2023-04-16T17:05:47.338Z,98558.06
2023-04-16T17:08:14.956Z,98561.09
2023-04-16T17:10:43.829Z,98559.91
2023-04-16T17:13:10.492Z,98567.50
2023-04-16T17:15:37.313Z,98568.09
2023-04-16T17:18:04.028Z,98562.59
2023-04-16T17:20:30.723Z,98572.09
2023-04-16T17:22:57.367Z,98572.81
2023-04-16T17:25:23.955Z,98568.25
2023-04-16T17:27:50.530Z,98575.22
2023-04-16T17:30:17.432Z,98579.44
2023-04-16T17:32:45.073Z,98581.13
2023-04-16T17:35:16.781Z,98581.97
2023-04-16T17:37:43.340Z,98579.19
2023-04-16T17:40:10.222Z,98581.75
2023-04-16T17:42:37.137Z,98580.66
2023-04-16T17:45:03.957Z,98587.66
2023-04-16T17:47:31.413Z,98582.44
2023-04-16T17:49:58.152Z,98588.34
2023-04-16T17:52:24.795Z,98593.56
2023-04-16T17:54:53.090Z,98599.81
2023-04-16T17:57:19.680Z,98600.66
2023-04-16T17:59:46.326Z,98603.28
2023-04-16T18:02:13.018Z,98605.94
2023-04-16T18:04:39.804Z,98608.59
2023-04-16T18:07:07.294Z,98604.38
2023-04-16T18:09:33.993Z,98612.19
2023-04-16T18:12:01.502Z,98610.50
2023-04-16T18:14:29.205Z,98610.75
2023-04-16T18:16:55.923Z,98614.97
2023-04-16T18:19:22.768Z,98596.41
2023-04-16T18:21:49.456Z,98620.25
2023-04-16T18:24:16.069Z,98617.84
2023-04-16T18:26:46.056Z,98625.69
2023-04-16T18:29:14.413Z,98624.13
2023-04-16T18:31:41.306Z,98622.31
2023-04-16T18:34:08.157Z,98613.00
2023-04-16T18:36:36.518Z,98630.38
2023-04-16T18:39:03.291Z,98633.84
2023-04-16T18:41:32.516Z,98632.06
2023-04-16T18:43:59.319Z,98635.66
2023-04-16T18:46:27.163Z,98617.09
2023-04-16T18:48:56.811Z,98624.59
2023-04-16T18:51:24.228Z,98639.41
2023-04-16T18:53:51.276Z,98644.56
2023-04-16T18:56:20.940Z,98630.59
2023-04-16T18:58:48.315Z,98633.22
2023-04-16T19:01:15.039Z,98634.19
2023-04-16T19:03:44.435Z,98640.34
2023-04-16T19:06:11.066Z,98643.00
2023-04-16T19:08:40.130Z,98641.31
2023-04-16T19:11:10.827Z,98638.66
2023-04-16T19:13:38.644Z,98643.13
2023-04-16T19:16:11.140Z,98630.97
2023-04-16T19:18:40.322Z,98631.78
2023-04-16T19:21:11.090Z,98632.63
2023-04-16T19:23:39.037Z,98636.34
2023-04-16T19:26:05.682Z,98637.22
2023-04-16T19:28:40.527Z,98636.25
2023-04-16T19:31:08.652Z,98634.91
2023-04-16T19:33:36.131Z,98640.81
2023-04-16T19:36:03.183Z,98631.50
2023-04-16T19:38:31.960Z,98637.44
2023-04-16T19:40:59.393Z,98636.59
2023-04-16T19:43:27.581Z,98637.44
2023-04-16T19:45:55.134Z,98633.09
2023-04-16T19:48:22.517Z,98621.25
2023-04-16T19:50:49.830Z,98631.44
2023-04-16T19:53:19.276Z,98631.44
2023-04-16T19:55:46.461Z,98628.78
2023-04-16T19:58:15.644Z,98608.97
2023-04-16T20:00:42.575Z,98632.38
2023-04-16T20:03:09.656Z,98630.69
2023-04-16T20:05:37.384Z,98627.53
2023-04-16T20:08:04.404Z,98624.91
2023-04-16T20:10:31.614Z,98633.47
2023-04-16T20:12:58.464Z,98626.34
2023-04-16T20:15:25.206Z,98622.75
2023-04-16T20:17:54.630Z,98628.03
2023-04-16T20:20:23.568Z,98617.78
2023-04-16T20:22:50.655Z,98622.63
2023-04-16T20:25:21.560Z,98623.47
2023-04-16T20:27:48.486Z,98621.66
2023-04-16T20:30:15.264Z,98627.69
2023-04-16T20:32:42.075Z,98622.28
2023-04-16T20:35:10.937Z,98623.97
2023-04-16T20:37:38.565Z,98617.19
2023-04-16T20:40:07.808Z,98621.31
2023-04-16T20:42:34.666Z,98621.06
2023-04-16T20:45:01.330Z,98620.94
2023-04-16T20:47:28.223Z,98617.47
2023-04-16T20:49:55.176Z,98613.00
2023-04-16T20:52:21.737Z,98613.63
2023-04-16T20:54:48.242Z,98617.00
2023-04-16T20:57:14.995Z,98606.53
2023-04-16T20:59:41.536Z,98615.09
2023-04-16T21:02:08.319Z,98612.31
2023-04-16T21:04:35.058Z,98613.16
2023-04-16T21:07:04.117Z,98611.38
2023-04-16T21:09:31.456Z,98609.53
2023-04-16T21:11:58.163Z,98606.06
2023-04-16T21:14:24.681Z,98604.16
2023-04-16T21:16:51.794Z,98612.94
2023-04-16T21:19:22.410Z,98611.97
2023-04-16T21:21:48.999Z,98614.63
2023-04-16T21:24:15.783Z,98613.66
2023-04-16T21:26:42.365Z,98611.84
2023-04-16T21:29:08.999Z,98611.97
2023-04-16T21:31:35.639Z,98610.03
2023-04-16T21:34:02.287Z,98612.59
2023-04-16T21:36:33.811Z,98611.63
2023-04-16T21:39:00.484Z,98612.59
2023-04-16T21:41:27.112Z,98609.94
2023-04-16T21:43:53.826Z,98617.03
2023-04-16T21:46:20.884Z,98610.03
2023-04-16T21:48:48.500Z,98614.38
2023-04-16T21:51:15.694Z,98614.38
2023-04-16T21:53:42.302Z,98615.22
2023-04-16T21:56:08.871Z,98604.97
2023-04-16T21:58:35.613Z,98613.53
2023-04-16T22:01:02.278Z,98609.94
2023-04-16T22:03:30.581Z,98587.75
2023-04-16T22:06:00.910Z,98609.94
2023-04-16T22:08:28.901Z,98603.06
2023-04-16T22:10:59.555Z,98608.38
2023-04-16T22:13:26.984Z,98600.41
2023-04-16T22:15:54.926Z,98588.22
2023-04-16T22:18:27.021Z,98610.16
2023-04-16T22:20:54.800Z,98610.28
2023-04-16T22:23:25.711Z,98600.03
2023-04-16T22:25:54.881Z,98608.84
2023-04-16T22:28:21.597Z,98612.09
2023-04-16T22:30:48.268Z,98612.19
2023-04-16T22:33:15.249Z,98606.91
2023-04-16T22:35:42.037Z,98610.50
2023-04-16T22:38:08.574Z,98607.03
2023-04-16T22:40:35.743Z,98604.59
2023-04-16T22:43:02.317Z,98614.13
2023-04-16T22:45:29.275Z,98617.75
2023-04-16T22:47:55.870Z,98608.78
2023-04-16T22:50:23.150Z,98604.84
2023-04-16T22:52:49.689Z,98619.53
2023-04-16T22:55:16.563Z,98611.72
2023-04-16T22:57:43.201Z,98597.50
2023-04-16T23:00:16.526Z,98612.66
2023-04-16T23:02:44.191Z,98587.25
2023-04-16T23:05:12.784Z,98604.97
2023-04-16T23:07:39.493Z,98616.25
2023-04-16T23:10:08.222Z,98603.88
2023-04-16T23:12:37.151Z,98612.91
2023-04-16T23:15:04.784Z,98616.38
2023-04-16T23:17:31.465Z,98612.91
2023-04-16T23:19:58.122Z,98616.50
2023-04-16T23:22:24.863Z,98615.66
2023-04-16T23:24:52.823Z,98618.31
2023-04-16T23:27:19.379Z,98611.34
2023-04-16T23:29:46.033Z,98606.06
2023-04-16T23:32:12.653Z,98608.69
2023-04-16T23:34:39.206Z,98605.19
2023-04-16T23:37:05.915Z,98603.63
2023-04-16T23:39:32.496Z,98596.75
2023-04-16T23:41:59.596Z,98610.72
2023-04-16T23:44:26.209Z,98596.50
2023-04-16T23:46:52.875Z,98603.00
2023-04-16T23:49:19.398Z,98608.09
2023-04-16T23:51:46.044Z,98603.88
2023-04-16T23:54:12.705Z,98602.06
2023-04-16T23:56:39.277Z,98602.06
2023-04-16T23:59:06.119Z,98597.00
